createdAt,value
2022-11-25T00:01:31.928Z,7.20
2022-11-25T00:03:59.936Z,5.07
2022-11-25T00:06:33.712Z,5.57
2022-11-25T00:09:11.213Z,6.17
2022-11-25T00:11:41.306Z,6.10
2022-11-25T00:14:14.700Z,6.07
2022-11-25T00:16:46.681Z,6.63
2022-11-25T00:19:15.019Z,5.13
2022-11-25T00:21:41.771Z,6.70
2022-11-25T00:24:08.785Z,5.43
2022-11-25T00:26:36.759Z,7.13
2022-11-25T00:29:08.267Z,7.77
2022-11-25T00:31:38.141Z,8.43
2022-11-25T00:34:05.484Z,7.47
2022-11-25T00:36:35.756Z,7.57
2022-11-25T00:39:16.209Z,6.57
2022-11-25T00:42:03.545Z,6.07
2022-11-25T00:44:38.577Z,5.37
2022-11-25T00:47:05.778Z,6.10
2022-11-25T00:49:33.210Z,5.70
2022-11-25T00:52:00.140Z,6.17
2022-11-25T00:54:26.894Z,5.97
2022-11-25T00:56:54.123Z,5.23
2022-11-25T00:59:20.927Z,5.53
2022-11-25T01:01:47.912Z,6.07
2022-11-25T01:04:15.160Z,7.20
2022-11-25T01:06:42.395Z,6.93
2022-11-25T01:09:11.478Z,6.80
2022-11-25T01:11:38.260Z,6.80
2022-11-25T01:14:05.405Z,6.83
2022-11-25T01:16:32.651Z,7.03
2022-11-25T01:19:01.022Z,7.07
2022-11-25T01:21:32.317Z,7.43
2022-11-25T01:24:01.459Z,5.37
2022-11-25T01:26:29.784Z,5.70
2022-11-25T01:29:01.980Z,4.70
2022-11-25T01:31:33.232Z,5.23
2022-11-25T01:34:08.154Z,6.07
2022-11-25T01:36:34.855Z,5.10
2022-11-25T01:39:01.835Z,5.70
2022-11-25T01:41:32.735Z,5.30
2022-11-25T01:44:19.631Z,5.60
2022-11-25T01:47:15.784Z,4.70
2022-11-25T01:49:49.283Z,5.17
2022-11-25T01:52:27.692Z,5.17
2022-11-25T01:55:08.872Z,5.20
2022-11-25T01:57:47.613Z,5.83
2022-11-25T02:00:15.499Z,5.20
2022-11-25T02:02:42.926Z,5.17
2022-11-25T02:05:13.746Z,5.47
2022-11-25T02:07:46.016Z,5.20
2022-11-25T02:10:20.736Z,4.83
2022-11-25T02:12:48.954Z,4.47
2022-11-25T02:15:17.097Z,4.17
2022-11-25T02:17:44.772Z,4.27
2022-11-25T02:20:21.576Z,4.30
2022-11-25T02:23:09.495Z,4.53
2022-11-25T02:25:41.954Z,1.93
2022-11-25T02:28:17.753Z,3.67
2022-11-25T02:30:46.347Z,4.10
2022-11-25T02:33:14.713Z,3.70
2022-11-25T02:35:44.922Z,1.63
2022-11-25T02:38:26.066Z,3.67
2022-11-25T02:41:14.316Z,5.10
2022-11-25T02:43:41.962Z,4.30
2022-11-25T02:46:21.567Z,4.40
2022-11-25T02:51:37.648Z,3.83
2022-11-25T02:54:05.731Z,4.37
2022-11-25T02:56:36.657Z,4.37
2022-11-25T02:59:04.652Z,4.07
2022-11-25T03:01:32.819Z,3.63
2022-11-25T03:04:00.047Z,4.53
2022-11-25T03:06:27.764Z,3.90
2022-11-25T03:08:54.510Z,4.20
2022-11-25T03:11:21.346Z,3.90
2022-11-25T03:13:48.093Z,3.50
2022-11-25T03:16:14.857Z,3.90
2022-11-25T03:18:41.733Z,4.03
2022-11-25T03:21:08.458Z,3.97
2022-11-25T03:23:35.211Z,3.37
2022-11-25T03:26:07.104Z,3.60
2022-11-25T03:28:33.952Z,3.90
2022-11-25T03:31:00.668Z,3.97
2022-11-25T03:33:27.387Z,3.60
2022-11-25T03:35:54.127Z,4.33
2022-11-25T03:38:20.919Z,4.03
2022-11-25T03:40:47.968Z,3.53
2022-11-25T03:43:14.749Z,3.53
2022-11-25T03:45:43.604Z,4.63
2022-11-25T03:48:10.504Z,3.93
2022-11-25T03:50:37.283Z,4.50
2022-11-25T03:53:04.052Z,4.30
2022-11-25T03:55:30.803Z,4.50
2022-11-25T03:57:57.600Z,4.90
2022-11-25T04:00:24.891Z,4.97
2022-11-25T04:02:51.839Z,5.07
2022-11-25T04:05:18.658Z,4.60
2022-11-25T04:07:45.471Z,4.47
2022-11-25T04:10:12.814Z,4.00
2022-11-25T04:12:48.585Z,3.90
2022-11-25T04:15:17.231Z,4.27
2022-11-25T04:17:44.115Z,5.00
2022-11-25T04:20:13.349Z,5.03
2022-11-25T04:22:40.741Z,4.77
2022-11-25T04:25:09.276Z,6.80
2022-11-25T04:27:36.184Z,7.50
2022-11-25T04:30:03.652Z,5.77
2022-11-25T04:32:30.484Z,6.13
2022-11-25T04:34:57.334Z,3.97
2022-11-25T04:37:24.236Z,3.93
2022-11-25T04:39:51.065Z,4.33
2022-11-25T04:42:34.437Z,3.80
2022-11-25T04:45:22.940Z,4.17
2022-11-25T04:47:51.085Z,4.67
2022-11-25T04:50:22.702Z,4.40
2022-11-25T04:52:49.974Z,4.83
2022-11-25T04:55:16.786Z,5.80
2022-11-25T04:57:43.611Z,4.50
2022-11-25T05:00:11.367Z,4.50
2022-11-25T05:02:38.596Z,4.77
2022-11-25T05:05:06.544Z,5.10
2022-11-25T05:07:33.387Z,5.60
2022-11-25T05:10:00.155Z,5.17
2022-11-25T05:12:29.202Z,5.53
2022-11-25T05:14:56.620Z,4.60
2022-11-25T05:17:27.719Z,4.80
2022-11-25T05:19:54.522Z,5.30
2022-11-25T05:22:26.233Z,5.50
2022-11-25T05:24:53.619Z,6.10
2022-11-25T05:27:22.283Z,5.40
2022-11-25T05:29:55.528Z,6.20
2022-11-25T05:32:22.804Z,6.07
2022-11-25T05:34:49.502Z,6.17
2022-11-25T05:37:19.926Z,6.43
2022-11-25T05:39:50.771Z,5.53
2022-11-25T05:42:17.507Z,6.00
2022-11-25T05:44:45.206Z,5.77
2022-11-25T05:47:11.920Z,5.90
2022-11-25T05:49:38.737Z,5.57
2022-11-25T05:52:05.860Z,6.03
2022-11-25T05:54:32.711Z,5.63
2022-11-25T05:56:59.475Z,6.10
2022-11-25T05:59:26.226Z,6.27
2022-11-25T06:01:54.416Z,6.53
2022-11-25T06:04:21.228Z,6.20
2022-11-25T06:06:48.105Z,6.47
2022-11-25T06:09:14.939Z,5.97
2022-11-25T06:11:41.746Z,7.30
2022-11-25T06:14:08.659Z,7.73
2022-11-25T06:16:35.622Z,7.93
2022-11-25T06:19:07.076Z,7.37
2022-11-25T06:21:34.064Z,6.30
2022-11-25T06:24:01.405Z,7.87
2022-11-25T06:26:28.253Z,7.83
2022-11-25T06:28:56.661Z,7.03
2022-11-25T06:31:26.201Z,7.83
2022-11-25T06:33:53.987Z,7.33
2022-11-25T06:36:22.587Z,7.43
2022-11-25T06:38:54.775Z,7.67
2022-11-25T06:41:23.936Z,7.23
2022-11-25T06:43:51.788Z,7.27
2022-11-25T06:46:24.929Z,6.93
2022-11-25T06:48:54.108Z,7.90
2022-11-25T06:51:21.267Z,7.57
2022-11-25T06:53:48.264Z,7.10
2022-11-25T06:56:20.301Z,6.87
2022-11-25T06:58:49.145Z,6.73
2022-11-25T07:01:28.540Z,6.63
2022-11-25T07:04:03.324Z,6.70
2022-11-25T07:06:32.037Z,5.57
2022-11-25T07:08:59.783Z,6.73
2022-11-25T07:11:29.790Z,5.90
2022-11-25T07:14:11.910Z,5.60
2022-11-25T07:16:43.876Z,5.00
2022-11-25T07:19:14.460Z,5.57
2022-11-25T07:21:44.448Z,3.43
2022-11-25T07:24:15.031Z,3.40
2022-11-25T07:26:44.313Z,3.70
2022-11-25T07:29:54.134Z,3.50
2022-11-25T07:32:07.128Z,3.30
2022-11-25T07:34:37.044Z,2.80
2022-11-25T07:37:03.979Z,2.83
2022-11-25T07:39:31.042Z,2.67
2022-11-25T07:41:57.881Z,2.93
2022-11-25T07:44:25.805Z,2.80
2022-11-25T07:46:53.014Z,2.73
2022-11-25T07:49:25.532Z,3.37
2022-11-25T07:51:59.781Z,2.83
2022-11-25T07:54:27.292Z,2.97
2022-11-25T07:56:54.283Z,3.17
2022-11-25T07:59:23.272Z,2.93
2022-11-25T08:01:55.708Z,3.20
2022-11-25T08:04:24.214Z,3.40
2022-11-25T08:06:53.409Z,3.73
2022-11-25T08:09:23.626Z,3.63
2022-11-25T08:11:51.362Z,4.20
2022-11-25T08:14:18.939Z,3.90
2022-11-25T08:16:46.291Z,3.67
2022-11-25T08:19:17.278Z,3.60
2022-11-25T08:21:44.945Z,3.77
2022-11-25T08:24:20.811Z,3.47
2022-11-25T08:26:48.594Z,3.63
2022-11-25T08:29:18.166Z,3.90
2022-11-25T08:31:45.757Z,3.57
2022-11-25T08:34:22.903Z,3.80
2022-11-25T08:36:50.050Z,3.47
2022-11-25T08:39:50.530Z,3.40
2022-11-25T08:42:07.929Z,3.70
2022-11-25T08:44:41.690Z,3.53
2022-11-25T08:47:09.944Z,3.70
2022-11-25T08:49:41.411Z,3.33
2022-11-25T08:52:10.477Z,3.23
2022-11-25T08:54:37.910Z,3.30
2022-11-25T08:57:05.485Z,3.47
2022-11-25T08:59:32.377Z,3.90
2022-11-25T09:01:59.312Z,3.27
2022-11-25T09:04:26.163Z,3.43
2022-11-25T09:06:53.038Z,3.60
2022-11-25T09:09:19.897Z,3.07
2022-11-25T09:11:46.879Z,3.30
2022-11-25T09:14:14.227Z,3.00
2022-11-25T09:16:41.163Z,3.23
2022-11-25T09:19:08.118Z,3.73
2022-11-25T09:21:35.003Z,4.17
2022-11-25T09:24:02.446Z,4.40
2022-11-25T09:26:35.558Z,3.90
2022-11-25T09:29:03.652Z,3.80
2022-11-25T09:31:30.613Z,4.20
2022-11-25T09:33:57.663Z,4.03
2022-11-25T09:36:24.932Z,4.10
2022-11-25T09:38:52.623Z,4.53
2022-11-25T09:42:00.090Z,4.77
2022-11-25T09:45:06.785Z,4.53
2022-11-25T09:48:42.450Z,4.37
2022-11-25T09:51:50.061Z,4.47
2022-11-25T10:01:38.134Z,4.90
2022-11-25T10:04:28.004Z,3.30
2022-11-25T10:07:07.549Z,4.30
2022-11-25T10:09:36.365Z,4.10
2022-11-25T10:12:24.083Z,5.03
2022-11-25T10:15:02.032Z,4.80
2022-11-25T10:17:29.950Z,4.70
2022-11-25T10:20:13.069Z,4.63
2022-11-25T10:22:45.843Z,4.20
2022-11-25T10:25:17.567Z,4.57
2022-11-25T10:28:21.757Z,4.53
2022-11-25T10:31:18.151Z,4.20
2022-11-25T10:33:57.019Z,4.77
2022-11-25T10:36:30.739Z,4.37
2022-11-25T10:39:24.660Z,4.20
2022-11-25T10:42:20.821Z,4.90
2022-11-25T10:44:47.792Z,5.07
2022-11-25T10:47:27.234Z,4.30
2022-11-25T10:50:09.003Z,4.40
2022-11-25T10:52:56.965Z,4.70
2022-11-25T10:55:29.874Z,3.87
2022-11-25T10:57:56.821Z,4.33
2022-11-25T11:00:32.716Z,4.50
2022-11-25T11:03:15.074Z,4.37
2022-11-25T11:05:51.497Z,4.63
2022-11-25T11:08:26.341Z,4.13
2022-11-25T11:11:12.872Z,3.97
2022-11-25T11:13:39.850Z,4.20
2022-11-25T11:16:30.197Z,3.67
2022-11-25T11:18:58.176Z,3.53
2022-11-25T11:21:33.066Z,3.40
2022-11-25T11:24:02.830Z,3.90
2022-11-25T11:26:34.134Z,3.80
2022-11-25T11:29:14.696Z,3.80
2022-11-25T11:31:49.212Z,3.17
2022-11-25T11:34:50.457Z,3.65
2022-11-25T11:37:35.401Z,3.88
2022-11-25T11:40:25.417Z,3.08
2022-11-25T11:43:05.873Z,3.42
2022-11-25T11:45:43.480Z,2.83
2022-11-25T11:48:39.590Z,2.53
2022-11-25T11:51:33.416Z,2.42
2022-11-25T11:54:18.546Z,2.20
2022-11-25T11:57:03.456Z,2.80
2022-11-25T11:59:48.985Z,2.35
2022-11-25T12:02:40.865Z,3.42
2022-11-25T12:05:10.744Z,2.38
2022-11-25T12:07:53.102Z,2.53
2022-11-25T12:10:38.573Z,2.65
2022-11-25T12:13:13.982Z,2.43
2022-11-25T12:16:13.151Z,2.20
2022-11-25T12:19:02.259Z,2.35
2022-11-25T12:22:07.456Z,2.38
2022-11-25T12:24:58.267Z,2.33
2022-11-25T12:27:36.371Z,2.40
2022-11-25T12:30:07.729Z,2.28
2022-11-25T12:32:59.175Z,2.50
2022-11-25T12:35:42.069Z,2.78
2022-11-25T12:38:21.372Z,2.47
2022-11-25T12:41:24.902Z,2.63
2022-11-25T12:44:19.222Z,2.53
2022-11-25T12:46:52.222Z,2.47
2022-11-25T12:49:29.374Z,2.75
2022-11-25T12:52:17.897Z,2.45
2022-11-25T12:54:59.698Z,2.30
2022-11-25T12:58:12.064Z,2.33
2022-11-25T13:01:35.650Z,2.43
2022-11-25T13:04:42.329Z,2.87
2022-11-25T13:07:37.777Z,2.45
2022-11-25T13:10:18.924Z,2.33
2022-11-25T13:13:39.058Z,2.40
2022-11-25T13:16:09.206Z,2.35
2022-11-25T13:18:42.845Z,2.10
2022-11-25T13:21:19.841Z,2.42
2022-11-25T13:23:53.481Z,2.55
2022-11-25T13:26:33.704Z,2.50
2022-11-25T13:29:14.992Z,2.80
2022-11-25T13:32:23.628Z,2.80
2022-11-25T13:34:50.788Z,3.05
2022-11-25T13:37:47.120Z,2.38
2022-11-25T13:40:26.393Z,2.97
2022-11-25T13:42:55.364Z,2.85
2022-11-25T13:45:34.145Z,2.90
2022-11-25T13:48:20.514Z,3.20
2022-11-25T13:51:10.262Z,2.80
2022-11-25T13:53:37.915Z,2.50
2022-11-25T13:56:33.990Z,2.95
2022-11-25T13:59:13.898Z,2.45
2022-11-25T14:01:45.628Z,2.33
2022-11-25T14:04:16.257Z,2.28
2022-11-25T14:06:58.815Z,2.53
2022-11-25T14:10:01.827Z,2.70
2022-11-25T14:12:41.834Z,3.13
2022-11-25T14:16:06.983Z,2.83
2022-11-25T14:19:21.725Z,2.60
2022-11-25T14:22:03.649Z,2.87
2022-11-25T14:24:45.659Z,2.77
2022-11-25T14:27:29.464Z,2.93
2022-11-25T14:30:07.823Z,4.05
2022-11-25T14:32:58.332Z,3.38
2022-11-25T14:35:47.092Z,2.63
2022-11-25T14:38:22.159Z,2.95
2022-11-25T14:41:00.267Z,2.88
2022-11-25T14:43:30.436Z,2.70
2022-11-25T14:46:20.990Z,2.17
2022-11-25T14:48:59.653Z,2.50
2022-11-25T14:51:34.973Z,2.30
2022-11-25T14:54:02.873Z,2.40
2022-11-25T14:56:34.181Z,2.10
2022-11-25T14:59:01.639Z,2.70
2022-11-25T15:01:31.800Z,2.93
2022-11-25T15:04:19.577Z,2.88
2022-11-25T15:07:00.777Z,3.00
2022-11-25T15:09:42.766Z,3.63
2022-11-25T15:12:17.595Z,2.53
2022-11-25T15:14:53.029Z,2.53
2022-11-25T15:17:32.782Z,5.07
2022-11-25T15:20:11.218Z,7.30
2022-11-25T15:22:38.050Z,6.30
2022-11-25T15:25:14.626Z,7.50
2022-11-25T15:27:49.258Z,3.77
2022-11-25T15:30:29.153Z,2.70
2022-11-25T15:32:57.268Z,4.50
2022-11-25T15:35:26.943Z,2.90
2022-11-25T15:37:56.695Z,2.27
2022-11-25T15:40:41.916Z,2.50
2022-11-25T15:43:29.504Z,2.73
2022-11-25T15:46:02.633Z,2.53
2022-11-25T15:49:01.289Z,2.93
2022-11-25T15:51:55.190Z,2.90
2022-11-25T15:54:46.715Z,3.10
2022-11-25T15:57:28.116Z,2.63
2022-11-25T15:59:54.806Z,2.80
2022-11-25T16:02:36.511Z,2.67
2022-11-25T16:05:38.350Z,3.00
2022-11-25T16:08:29.515Z,2.70
2022-11-25T16:11:17.039Z,2.80
2022-11-25T16:13:44.281Z,2.83
2022-11-25T16:16:30.124Z,3.03
2022-11-25T16:19:14.974Z,3.30
2022-11-25T16:21:53.085Z,3.87
2022-11-25T16:24:40.944Z,4.17
2022-11-25T16:27:17.382Z,3.00
2022-11-25T16:30:08.434Z,4.70
2022-11-25T16:45:24.111Z,5.07
2022-11-25T16:47:51.114Z,5.50
2022-11-25T16:50:19.719Z,4.72
2022-11-25T16:52:46.546Z,4.30
2022-11-25T16:55:14.204Z,3.60
2022-11-25T16:57:43.051Z,3.30
2022-11-25T17:00:17.030Z,4.13
2022-11-25T17:02:44.928Z,3.90
2022-11-25T17:05:24.758Z,3.80
2022-11-25T17:07:52.033Z,4.17
2022-11-25T17:10:22.047Z,3.47
2022-11-25T17:12:49.772Z,3.83
2022-11-25T17:15:21.029Z,4.47
2022-11-25T17:17:49.006Z,4.30
2022-11-25T17:20:24.521Z,4.30
2022-11-25T17:22:53.656Z,4.20
2022-11-25T17:25:25.801Z,3.83
2022-11-25T17:27:54.453Z,4.50
2022-11-25T17:30:27.271Z,4.10
2022-11-25T17:33:17.381Z,4.67
2022-11-25T17:35:45.350Z,3.87
2022-11-25T17:38:21.224Z,4.67
2022-11-25T17:40:49.636Z,8.00
2022-11-25T17:43:19.885Z,4.93
2022-11-25T17:45:48.878Z,4.40
2022-11-25T17:48:18.281Z,5.00
2022-11-25T17:50:46.869Z,4.90
2022-11-25T17:53:13.691Z,4.63
2022-11-25T17:55:41.742Z,4.90
2022-11-25T17:58:12.468Z,4.10
2022-11-25T18:00:43.482Z,3.87
2022-11-25T18:03:13.343Z,4.63
2022-11-25T18:05:40.214Z,5.47
2022-11-25T18:08:07.172Z,5.57
2022-11-25T18:10:34.570Z,4.70
2022-11-25T18:13:02.795Z,6.20
2022-11-25T18:15:34.677Z,5.30
2022-11-25T18:18:16.743Z,5.13
2022-11-25T18:20:44.802Z,4.83
2022-11-25T18:23:11.592Z,4.77
2022-11-25T18:25:41.071Z,4.93
2022-11-25T18:28:08.265Z,6.23
2022-11-25T18:30:38.435Z,5.03
2022-11-25T18:37:05.270Z,5.30
2022-11-25T18:39:32.045Z,4.87
2022-11-25T18:42:00.031Z,6.53
2022-11-25T18:44:31.875Z,6.60
2022-11-25T18:46:58.685Z,6.37
2022-11-25T18:49:25.447Z,5.13
2022-11-25T18:51:54.915Z,4.80
2022-11-25T18:54:27.540Z,6.37
2022-11-25T18:56:54.604Z,5.20
2022-11-25T18:59:34.061Z,4.93
2022-11-25T19:02:01.197Z,4.83
2022-11-25T19:04:28.517Z,5.00
2022-11-25T19:06:55.302Z,4.50
2022-11-25T19:09:28.343Z,5.30
2022-11-25T19:11:55.360Z,4.73
2022-11-25T19:14:34.887Z,4.97
2022-11-25T19:17:19.595Z,4.80
2022-11-25T19:19:47.206Z,4.70
2022-11-25T19:22:16.245Z,5.47
2022-11-25T19:24:44.264Z,5.93
2022-11-25T19:27:19.248Z,5.00
2022-11-25T19:29:49.348Z,4.70
2022-11-25T19:32:29.338Z,4.97
2022-11-25T19:35:06.785Z,5.07
2022-11-25T19:37:33.786Z,15.20
2022-11-25T19:40:12.895Z,16.37
2022-11-25T19:42:39.661Z,7.40
2022-11-25T19:45:07.199Z,5.30
2022-11-25T19:47:34.085Z,10.50
2022-11-25T19:50:02.197Z,5.63
2022-11-25T19:52:35.882Z,4.63
2022-11-25T19:55:21.527Z,5.03
2022-11-25T19:57:52.955Z,3.77
2022-11-25T20:00:22.355Z,3.20
2022-11-25T20:02:55.763Z,3.20
2022-11-25T20:05:32.738Z,3.07
2022-11-25T20:07:59.872Z,3.10
2022-11-25T20:10:30.627Z,3.00
2022-11-25T20:12:59.187Z,3.60
2022-11-25T20:15:26.703Z,4.97
2022-11-25T20:18:00.714Z,4.30
2022-11-25T20:20:35.282Z,4.70
2022-11-25T20:23:13.790Z,5.13
2022-11-25T20:25:45.794Z,7.60
2022-11-25T20:28:32.384Z,6.53
2022-11-25T20:30:59.696Z,7.20
2022-11-25T20:33:27.471Z,7.57
2022-11-25T20:36:06.428Z,6.93
2022-11-25T20:38:36.043Z,6.70
2022-11-25T20:41:05.906Z,8.13
2022-11-25T20:43:41.469Z,9.17
2022-11-25T20:46:21.274Z,9.37
2022-11-25T20:48:53.113Z,9.53
2022-11-25T20:51:23.447Z,9.30
2022-11-25T20:53:55.066Z,7.47
2022-11-25T20:56:26.075Z,7.70
2022-11-25T20:58:53.317Z,7.07
2022-11-25T21:01:20.260Z,5.40
2022-11-25T21:03:52.347Z,5.47
2022-11-25T21:06:29.580Z,3.50
2022-11-25T21:09:02.061Z,2.50
2022-11-25T21:11:32.862Z,3.03
2022-11-25T21:13:59.842Z,2.50
2022-11-25T21:16:29.734Z,2.63
2022-11-25T21:18:56.553Z,2.70
2022-11-25T21:21:32.960Z,3.73
2022-11-25T21:24:22.223Z,4.47
2022-11-25T21:26:50.388Z,4.50
2022-11-25T21:29:18.128Z,5.67
2022-11-25T21:31:45.494Z,6.03
2022-11-25T21:34:13.829Z,6.00
2022-11-25T21:36:44.121Z,6.50
2022-11-25T21:39:32.782Z,6.00
2022-11-25T21:42:15.271Z,6.57
2022-11-25T21:44:46.228Z,6.70
2022-11-25T21:47:16.521Z,6.33
2022-11-25T21:49:43.807Z,6.30
2022-11-25T21:52:10.927Z,7.17
2022-11-25T21:54:38.218Z,6.30
2022-11-25T21:57:05.859Z,6.20
2022-11-25T21:59:32.812Z,7.47
2022-11-25T22:01:59.605Z,6.53
2022-11-25T22:04:29.025Z,7.30
2022-11-25T22:06:55.933Z,6.80
2022-11-25T22:09:22.686Z,6.37
2022-11-25T22:11:50.451Z,8.47
2022-11-25T22:14:34.087Z,7.33
2022-11-25T22:17:05.001Z,7.03
2022-11-25T22:19:32.575Z,7.30
2022-11-25T22:21:59.457Z,7.37
2022-11-25T22:24:26.324Z,7.90
2022-11-25T22:26:57.825Z,7.90
2022-11-25T22:29:34.384Z,8.13
2022-11-25T22:32:04.193Z,7.90
2022-11-25T22:34:32.785Z,8.77
2022-11-25T22:36:59.572Z,7.83
2022-11-25T22:39:27.018Z,9.30
2022-11-25T22:42:07.672Z,9.10
2022-11-25T22:44:45.764Z,8.07
2022-11-25T22:47:46.641Z,8.50
2022-11-25T22:50:27.050Z,8.27
2022-11-25T22:52:56.669Z,8.73
2022-11-25T22:55:32.580Z,8.80
2022-11-25T22:58:01.745Z,9.50
2022-11-25T23:00:34.270Z,9.70
2022-11-25T23:03:06.605Z,9.13
2022-11-25T23:05:36.272Z,9.33
2022-11-25T23:08:16.410Z,9.17
2022-11-25T23:10:44.034Z,9.63
2022-11-25T23:13:13.303Z,9.73
2022-11-25T23:16:03.237Z,9.33
2022-11-25T23:18:42.882Z,9.57
2022-11-25T23:21:23.373Z,8.80
2022-11-25T23:23:51.204Z,9.20
2022-11-25T23:26:17.990Z,9.00
2022-11-25T23:28:44.921Z,10.33
2022-11-25T23:31:18.829Z,10.30
2022-11-25T23:33:49.654Z,10.13
2022-11-25T23:36:26.547Z,9.57
2022-11-25T23:39:02.145Z,9.27
2022-11-25T23:41:32.827Z,9.33
2022-11-25T23:44:13.397Z,9.00
2022-11-25T23:46:40.679Z,9.53
2022-11-25T23:49:18.877Z,9.47
2022-11-25T23:51:46.203Z,9.47
2022-11-25T23:54:18.117Z,8.90
2022-11-25T23:56:45.008Z,8.77
2022-11-25T23:59:16.910Z,8.77
